Time;durP1;ratioP1;P1;durP2;ratioP2;P2;SDS_P1;SDS_P2;PMS_P1;PMS_P2;Temp;Humidity;BMP_temperature;BMP_pressure;BME280_temperature;BME280_humidity;BME280_pressure;Samples;Min_cycle;Max_cycle;Signal;HPM_P1;HPM_P2
2022/10/06 00:00:24;;;;;;;8.65;4.40;;;;;;;;;;5055606;28;20059;-81
2022/10/06 00:02:51;;;;;;;7.97;4.72;;;;;;;;;;5055680;28;20560;-81
2022/10/06 00:05:17;;;;;;;9.07;4.18;;;;;;;;;;5055500;28;20025;-80
2022/10/06 00:07:43;;;;;;;8.43;4.57;;;;;;;;;;5052475;28;20100;-80
2022/10/06 00:10:09;;;;;;;8.75;4.97;;;;;;;;;;5054883;28;20510;-80
2022/10/06 00:12:41;;;;;;;7.88;5.03;;;;;;;;;;5054853;28;20057;-80
2022/10/06 00:15:08;;;;;;;8.70;4.93;;;;;;;;;;5047484;28;20025;-80
2022/10/06 00:17:34;;;;;;;9.95;5.40;;;;;;;;;;5045498;28;20025;-80
2022/10/06 00:20:00;;;;;;;10.60;5.00;;;;;;;;;;5055719;28;20069;-80
2022/10/06 00:22:32;;;;;;;8.02;4.50;;;;;;;;;;5053004;28;20041;-80
2022/10/06 00:24:58;;;;;;;8.65;4.75;;;;;;;;;;5055298;28;20021;-80
2022/10/06 00:27:24;;;;;;;8.95;5.40;;;;;;;;;;5053183;28;20039;-80
2022/10/06 00:29:50;;;;;;;8.15;5.15;;;;;;;;;;5017808;28;20093;-79
2022/10/06 00:32:16;;;;;;;10.25;5.43;;;;;;;;;;5052886;28;20108;-80
2022/10/06 00:34:42;;;;;;;9.18;5.20;;;;;;;;;;5055551;28;20040;-80
2022/10/06 00:37:08;;;;;;;9.45;5.75;;;;;;;;;;5053338;28;20025;-80
2022/10/06 00:39:34;;;;;;;9.82;6.13;;;;;;;;;;5054591;28;20025;-79
2022/10/06 00:42:01;;;;;;;7.80;4.78;;;;;;;;;;5055289;28;20028;-79
2022/10/06 00:44:26;;;;;;;9.45;5.68;;;;;;;;;;5055350;28;20063;-79
2022/10/06 00:46:53;;;;;;;10.07;5.60;;;;;;;;;;5054253;28;20029;-80
2022/10/06 00:49:22;;;;;;;9.38;5.45;;;;;;;;;;5053535;28;20032;-80
2022/10/06 00:51:51;;;;;;;9.43;5.68;;;;;;;;;;5054541;28;20510;-80
2022/10/06 00:54:17;;;;;;;8.65;5.15;;;;;;;;;;5055001;28;20051;-80
2022/10/06 00:56:46;;;;;;;9.35;5.15;;;;;;;;;;5053700;28;20027;-79
2022/10/06 00:59:13;;;;;;;8.95;5.55;;;;;;;;;;5054336;28;20391;-80
2022/10/06 01:01:41;;;;;;;10.02;6.35;;;;;;;;;;5053741;28;20506;-80
2022/10/06 01:04:09;;;;;;;9.90;6.00;;;;;;;;;;5054498;28;20031;-80
2022/10/06 01:06:46;;;;;;;9.60;5.65;;;;;;;;;;5048504;28;20029;-79
2022/10/06 01:09:12;;;;;;;8.60;5.53;;;;;;;;;;5047235;28;20025;-79
2022/10/06 01:11:39;;;;;;;10.00;5.55;;;;;;;;;;5054400;28;20021;-80
2022/10/06 01:14:05;;;;;;;8.65;5.90;;;;;;;;;;5053395;28;20520;-80
2022/10/06 01:16:33;;;;;;;8.95;5.45;;;;;;;;;;5054840;28;20021;-80
2022/10/06 01:19:00;;;;;;;10.18;5.88;;;;;;;;;;5053407;28;20075;-80
2022/10/06 01:21:30;;;;;;;8.85;5.20;;;;;;;;;;5053934;28;20028;-80
2022/10/06 01:23:57;;;;;;;8.13;5.15;;;;;;;;;;5054833;28;20033;-79
2022/10/06 01:26:23;;;;;;;12.63;6.05;;;;;;;;;;5052810;28;20036;-79
2022/10/06 01:28:49;;;;;;;8.20;5.72;;;;;;;;;;5053526;28;20037;-79
2022/10/06 01:31:15;;;;;;;8.38;5.30;;;;;;;;;;5053176;28;20112;-79
2022/10/06 01:33:41;;;;;;;9.57;5.68;;;;;;;;;;5050162;28;20060;-80
2022/10/06 01:36:07;;;;;;;8.18;5.78;;;;;;;;;;5034448;28;20032;-80
2022/10/06 01:38:35;;;;;;;8.55;5.40;;;;;;;;;;5052777;28;20096;-80
2022/10/06 01:41:01;;;;;;;10.73;5.75;;;;;;;;;;5036696;28;20031;-80
2022/10/06 01:43:27;;;;;;;9.50;6.20;;;;;;;;;;5054109;28;20017;-80
2022/10/06 01:45:57;;;;;;;8.68;5.10;;;;;;;;;;5054881;28;20025;-80
2022/10/06 01:48:23;;;;;;;10.40;5.57;;;;;;;;;;5051723;28;20036;-79
2022/10/06 01:50:50;;;;;;;8.02;5.35;;;;;;;;;;5052416;28;20040;-79
2022/10/06 01:53:16;;;;;;;9.48;5.30;;;;;;;;;;5053207;28;20025;-80
2022/10/06 01:55:42;;;;;;;9.43;5.45;;;;;;;;;;5053434;28;20448;-80
2022/10/06 01:58:09;;;;;;;9.00;5.53;;;;;;;;;;5053257;28;20041;-80
2022/10/06 02:00:35;;;;;;;9.00;5.70;;;;;;;;;;5054910;28;20483;-80
2022/10/06 02:03:01;;;;;;;8.98;5.32;;;;;;;;;;5055516;28;20036;-80
2022/10/06 02:05:27;;;;;;;9.02;5.40;;;;;;;;;;5037540;28;20039;-79
2022/10/06 02:07:53;;;;;;;9.60;5.60;;;;;;;;;;5055950;28;20025;-80
2022/10/06 02:10:19;;;;;;;9.70;5.28;;;;;;;;;;5057293;28;20472;-80
2022/10/06 02:12:49;;;;;;;9.35;5.63;;;;;;;;;;5057308;28;20325;-79
2022/10/06 02:15:16;;;;;;;8.18;5.38;;;;;;;;;;5057946;28;20025;-79
2022/10/06 02:17:42;;;;;;;8.63;5.45;;;;;;;;;;5057184;28;20032;-80
2022/10/06 02:20:08;;;;;;;8.57;5.32;;;;;;;;;;5057785;28;20033;-80
2022/10/06 02:22:43;;;;;;;10.55;5.85;;;;;;;;;;5056738;28;20086;-80
2022/10/06 02:25:13;;;;;;;9.30;5.82;;;;;;;;;;5057146;28;20029;-80
2022/10/06 02:27:39;;;;;;;8.75;5.47;;;;;;;;;;5056148;28;20499;-80
2022/10/06 02:30:06;;;;;;;8.13;5.30;;;;;;;;;;5057561;28;20075;-80
2022/10/06 02:32:35;;;;;;;9.93;5.22;;;;;;;;;;5057192;28;20544;-79
2022/10/06 02:35:02;;;;;;;8.27;5.13;;;;;;;;;;5042793;28;20037;-80
2022/10/06 02:37:28;;;;;;;9.82;5.70;;;;;;;;;;5050093;28;20017;-80
2022/10/06 02:39:54;;;;;;;10.27;5.50;;;;;;;;;;5058389;28;20040;-80
2022/10/06 02:42:20;;;;;;;10.38;5.25;;;;;;;;;;5056628;28;20029;-80
2022/10/06 02:44:48;;;;;;;8.82;5.65;;;;;;;;;;5056361;28;20032;-79
2022/10/06 02:47:14;;;;;;;9.15;5.50;;;;;;;;;;5054849;28;20495;-80
2022/10/06 02:49:40;;;;;;;9.38;5.35;;;;;;;;;;5057179;28;20071;-80
2022/10/06 02:52:07;;;;;;;9.07;4.78;;;;;;;;;;5056616;28;20021;-80
2022/10/06 02:54:35;;;;;;;9.23;5.35;;;;;;;;;;5056137;28;20028;-80
2022/10/06 02:57:01;;;;;;;9.85;5.72;;;;;;;;;;5055623;28;20025;-80
2022/10/06 02:59:27;;;;;;;9.48;5.53;;;;;;;;;;5056153;28;20440;-79
2022/10/06 03:01:53;;;;;;;11.82;6.22;;;;;;;;;;5053564;28;20040;-78
2022/10/06 03:04:19;;;;;;;7.95;5.03;;;;;;;;;;5046757;28;20025;-80
2022/10/06 03:06:45;;;;;;;8.85;5.35;;;;;;;;;;5050879;28;20033;-79
2022/10/06 03:09:12;;;;;;;10.02;6.05;;;;;;;;;;5055725;28;20032;-79
2022/10/06 03:11:39;;;;;;;8.85;5.40;;;;;;;;;;5055681;28;20021;-79
2022/10/06 03:14:06;;;;;;;9.65;5.45;;;;;;;;;;5057637;28;20025;-79
2022/10/06 03:16:33;;;;;;;9.23;5.55;;;;;;;;;;5054880;28;20032;-79
2022/10/06 03:19:00;;;;;;;8.25;5.53;;;;;;;;;;5056611;28;20013;-79
2022/10/06 03:21:31;;;;;;;8.82;5.80;;;;;;;;;;5056713;28;20501;-79
2022/10/06 03:23:58;;;;;;;8.57;5.43;;;;;;;;;;5040640;28;20040;-80
2022/10/06 03:26:26;;;;;;;8.63;5.35;;;;;;;;;;5056524;28;20040;-79
2022/10/06 03:28:52;;;;;;;10.30;5.32;;;;;;;;;;5055111;28;20433;-79
2022/10/06 03:31:18;;;;;;;8.25;5.30;;;;;;;;;;5055305;28;20502;-79
2022/10/06 03:33:44;;;;;;;8.50;5.47;;;;;;;;;;5054655;28;20387;-79
2022/10/06 03:36:12;;;;;;;9.10;5.30;;;;;;;;;;5052898;28;20032;-79
2022/10/06 03:38:38;;;;;;;10.20;5.90;;;;;;;;;;5049477;28;20067;-79
2022/10/06 03:41:05;;;;;;;10.05;5.60;;;;;;;;;;5056754;28;20410;-79
2022/10/06 03:43:31;;;;;;;11.00;5.97;;;;;;;;;;5055902;28;20033;-79
2022/10/06 03:45:59;;;;;;;9.32;5.82;;;;;;;;;;5052552;28;20063;-78
2022/10/06 03:48:26;;;;;;;10.65;6.25;;;;;;;;;;5071862;28;20044;-79
2022/10/06 03:50:56;;;;;;;8.98;5.93;;;;;;;;;;5056165;28;20076;-79
2022/10/06 03:53:24;;;;;;;9.48;6.10;;;;;;;;;;5062920;28;20032;-79
2022/10/06 03:55:58;;;;;;;11.18;6.22;;;;;;;;;;5053572;28;20364;-79
2022/10/06 03:58:24;;;;;;;9.18;5.32;;;;;;;;;;5055096;28;20059;-79
2022/10/06 04:00:57;;;;;;;10.18;5.90;;;;;;;;;;5053657;28;20029;-78
2022/10/06 04:03:23;;;;;;;;;;;;;;;;;;5036355;28;20033;-79
2022/10/06 04:05:56;;;;;;;8.82;5.85;;;;;;;;;;5035555;28;19905;-79
2022/10/06 04:08:22;;;;;;;;;;;;;;;;;;5036700;28;20025;-79
2022/10/06 04:10:48;;;;;;;10.02;5.22;;;;;;;;;;5045695;28;20397;-79
2022/10/06 04:13:21;;;;;;;10.48;5.20;;;;;;;;;;5054620;28;20022;-79
2022/10/06 04:15:47;;;;;;;10.77;5.55;;;;;;;;;;5055150;28;20025;-79
2022/10/06 04:18:14;;;;;;;10.32;5.80;;;;;;;;;;5054182;28;20025;-79
2022/10/06 04:20:40;;;;;;;9.77;6.00;;;;;;;;;;5053041;28;20088;-80
2022/10/06 04:23:07;;;;;;;10.07;6.00;;;;;;;;;;5055026;28;20596;-79
2022/10/06 04:25:33;;;;;;;10.27;5.63;;;;;;;;;;5055784;28;20479;-79
2022/10/06 04:27:59;;;;;;;9.23;5.72;;;;;;;;;;5043569;28;20021;-79
2022/10/06 04:30:26;;;;;;;11.15;5.97;;;;;;;;;;5055280;28;20047;-79
2022/10/06 04:32:52;;;;;;;12.90;6.00;;;;;;;;;;5036776;28;20048;-79
2022/10/06 04:35:19;;;;;;;11.05;6.55;;;;;;;;;;5055909;28;20430;-79
2022/10/06 04:37:45;;;;;;;8.15;5.13;;;;;;;;;;5055419;28;20021;-78
2022/10/06 04:40:12;;;;;;;9.45;5.82;;;;;;;;;;5061628;28;20078;-80
2022/10/06 04:42:39;;;;;;;9.27;5.97;;;;;;;;;;5053562;28;20052;-80
2022/10/06 04:45:05;;;;;;;9.30;5.80;;;;;;;;;;5047082;28;20032;-79
2022/10/06 04:47:31;;;;;;;9.45;5.85;;;;;;;;;;5055245;28;20052;-79
2022/10/06 04:49:57;;;;;;;9.85;5.50;;;;;;;;;;5052629;28;20488;-78
2022/10/06 04:52:23;;;;;;;8.93;4.70;;;;;;;;;;5047835;28;20024;-78
2022/10/06 04:54:49;;;;;;;8.52;4.55;;;;;;;;;;5052340;28;20036;-79
2022/10/06 04:57:15;;;;;;;7.85;4.68;;;;;;;;;;5055486;28;20032;-79
2022/10/06 05:02:28;;;;;;;7.68;4.72;;;;;;;;;;5054978;28;20087;-79
2022/10/06 05:04:54;;;;;;;8.13;4.97;;;;;;;;;;5046809;28;20083;-78
2022/10/06 05:07:20;;;;;;;6.10;4.10;;;;;;;;;;5043266;28;20016;-79
2022/10/06 05:09:46;;;;;;;9.52;5.18;;;;;;;;;;5035975;28;20110;-79
2022/10/06 05:12:12;;;;;;;9.07;4.85;;;;;;;;;;5050706;28;20464;-80
2022/10/06 05:14:38;;;;;;;9.20;5.53;;;;;;;;;;5052590;28;20036;-78
2022/10/06 05:17:04;;;;;;;9.35;5.55;;;;;;;;;;5054910;28;20028;-79
2022/10/06 05:19:30;;;;;;;9.48;6.05;;;;;;;;;;5049797;28;20395;-79
2022/10/06 05:21:56;;;;;;;11.15;5.68;;;;;;;;;;5046233;28;20025;-79
2022/10/06 05:24:22;;;;;;;11.18;5.80;;;;;;;;;;5054230;28;20391;-79
2022/10/06 05:26:48;;;;;;;11.10;5.63;;;;;;;;;;5055589;28;20060;-79
2022/10/06 05:29:14;;;;;;;11.00;6.25;;;;;;;;;;5053739;28;20029;-79
2022/10/06 05:31:42;;;;;;;11.05;5.93;;;;;;;;;;5054733;28;20029;-79
2022/10/06 05:34:08;;;;;;;11.90;6.85;;;;;;;;;;5054550;28;20074;-79
2022/10/06 05:36:34;;;;;;;11.93;7.18;;;;;;;;;;5054580;28;20029;-78
2022/10/06 05:39:01;;;;;;;11.15;6.47;;;;;;;;;;5056358;28;20071;-79
2022/10/06 05:41:28;;;;;;;13.80;8.75;;;;;;;;;;5059460;28;20139;-79
2022/10/06 05:43:55;;;;;;;10.88;6.78;;;;;;;;;;5059375;28;20025;-79
2022/10/06 05:46:23;;;;;;;11.93;7.60;;;;;;;;;;5059071;28;20049;-78
2022/10/06 05:48:54;;;;;;;12.70;7.25;;;;;;;;;;5056972;28;20422;-79
2022/10/06 05:51:20;;;;;;;14.13;7.35;;;;;;;;;;5057405;28;20022;-78
2022/10/06 05:53:47;;;;;;;11.65;7.80;;;;;;;;;;5058222;28;20021;-79
2022/10/06 05:56:16;;;;;;;12.75;7.55;;;;;;;;;;5058995;28;20024;-79
2022/10/06 05:58:44;;;;;;;10.85;6.55;;;;;;;;;;5057254;28;20504;-79
2022/10/06 06:01:11;;;;;;;16.10;7.78;;;;;;;;;;5057663;28;20033;-79
2022/10/06 06:03:38;;;;;;;12.73;7.85;;;;;;;;;;5058864;28;20103;-78
2022/10/06 06:06:04;;;;;;;15.00;7.90;;;;;;;;;;5058343;28;20060;-78
2022/10/06 06:08:30;;;;;;;13.80;7.95;;;;;;;;;;5057138;28;20020;-78
2022/10/06 06:11:04;;;;;;;14.07;8.52;;;;;;;;;;5057931;28;20391;-78
2022/10/06 06:13:30;;;;;;;16.25;8.95;;;;;;;;;;5058311;28;20021;-78
2022/10/06 06:16:03;;;;;;;13.65;8.52;;;;;;;;;;5060190;28;20031;-78
2022/10/06 06:18:29;;;;;;;;;;;;;;;;;;5059895;28;20014;-79
2022/10/06 06:20:58;;;;;;;14.82;7.68;;;;;;;;;;5061109;28;19915;-78
2022/10/06 06:23:24;;;;;;;13.57;8.15;;;;;;;;;;5062287;28;20096;-78
2022/10/06 06:25:57;;;;;;;13.23;8.73;;;;;;;;;;5061760;28;20398;-78
2022/10/06 06:28:23;;;;;;;13.20;8.38;;;;;;;;;;5061434;28;20326;-78
2022/10/06 06:30:49;;;;;;;12.75;8.57;;;;;;;;;;5059874;28;20597;-79
2022/10/06 06:33:15;;;;;;;12.52;8.45;;;;;;;;;;5058784;28;20396;-78
2022/10/06 06:35:42;;;;;;;13.75;9.00;;;;;;;;;;5058070;28;20112;-79
2022/10/06 06:38:10;;;;;;;17.00;8.55;;;;;;;;;;5058675;28;20558;-78
2022/10/06 06:40:40;;;;;;;12.23;8.73;;;;;;;;;;5057230;28;20029;-78
2022/10/06 06:43:06;;;;;;;18.65;9.27;;;;;;;;;;5057914;28;20108;-79
2022/10/06 06:45:32;;;;;;;12.68;8.00;;;;;;;;;;5057023;28;20040;-78
2022/10/06 06:47:58;;;;;;;13.10;8.23;;;;;;;;;;5056632;28;20423;-79
2022/10/06 06:50:24;;;;;;;12.57;7.70;;;;;;;;;;5033262;28;20029;-79
2022/10/06 06:52:50;;;;;;;12.15;8.20;;;;;;;;;;5057021;28;20032;-79
2022/10/06 06:55:16;;;;;;;14.52;8.70;;;;;;;;;;5058045;28;20025;-79
2022/10/06 06:57:42;;;;;;;11.38;8.25;;;;;;;;;;5057478;28;20054;-79
2022/10/06 07:00:08;;;;;;;13.00;7.78;;;;;;;;;;5056227;28;20453;-78
2022/10/06 07:02:34;;;;;;;12.85;8.35;;;;;;;;;;5057532;28;20103;-79
2022/10/06 07:05:00;;;;;;;11.55;7.70;;;;;;;;;;5057864;28;20025;-79
2022/10/06 07:07:26;;;;;;;12.40;8.48;;;;;;;;;;5056795;28;20052;-80
2022/10/06 07:09:52;;;;;;;10.35;7.30;;;;;;;;;;5056701;28;20463;-80
2022/10/06 07:12:18;;;;;;;12.98;8.02;;;;;;;;;;5057147;28;20029;-80
2022/10/06 07:25:43;;;;;;;13.00;7.25;;;;;;;;;;5057122;28;20044;-80
2022/10/06 07:28:11;;;;;;;12.43;7.35;;;;;;;;;;5055718;28;20029;-80
2022/10/06 07:30:37;;;;;;;10.82;7.13;;;;;;;;;;5038504;28;20025;-80
2022/10/06 07:33:04;;;;;;;10.32;6.97;;;;;;;;;;5037947;28;20010;-80
2022/10/06 07:35:30;;;;;;;11.68;7.10;;;;;;;;;;5056467;28;20021;-79
2022/10/06 07:38:01;;;;;;;10.80;7.07;;;;;;;;;;5056981;28;20441;-80
2022/10/06 07:40:27;;;;;;;11.00;6.53;;;;;;;;;;5056293;28;20021;-80
2022/10/06 07:42:53;;;;;;;10.68;7.18;;;;;;;;;;5056288;28;20611;-81
2022/10/06 07:45:43;;;;;;;11.82;6.80;;;;;;;;;;5056101;28;20547;-80
2022/10/06 07:48:13;;;;;;;11.23;7.32;;;;;;;;;;5038335;28;20186;-81
2022/10/06 07:50:39;;;;;;;14.95;7.80;;;;;;;;;;5056761;28;20139;-81
2022/10/06 07:53:08;;;;;;;11.88;7.22;;;;;;;;;;5056605;28;20029;-80
2022/10/06 07:55:38;;;;;;;12.02;8.15;;;;;;;;;;5057320;28;20051;-80
2022/10/06 07:58:14;;;;;;;10.43;6.88;;;;;;;;;;5056143;28;20107;-80
2022/10/06 08:00:41;;;;;;;10.93;7.55;;;;;;;;;;5056761;28;20088;-81
2022/10/06 08:03:10;;;;;;;9.93;6.88;;;;;;;;;;5055435;28;20057;-80
2022/10/06 08:05:38;;;;;;;13.02;7.30;;;;;;;;;;5055471;28;20027;-80
2022/10/06 08:08:04;;;;;;;12.15;7.90;;;;;;;;;;5056437;28;20047;-79
2022/10/06 08:10:30;;;;;;;15.88;8.35;;;;;;;;;;5056692;28;20044;-79
2022/10/06 08:12:56;;;;;;;11.80;6.75;;;;;;;;;;5055997;28;20018;-80
2022/10/06 08:15:22;;;;;;;8.63;6.40;;;;;;;;;;5057672;28;20021;-80
2022/10/06 08:17:48;;;;;;;8.80;5.93;;;;;;;;;;5057905;28;20029;-79
2022/10/06 08:20:16;;;;;;;9.18;6.05;;;;;;;;;;5056713;28;20463;-81
2022/10/06 08:22:42;;;;;;;7.88;5.53;;;;;;;;;;5057406;28;20044;-80
2022/10/06 08:25:10;;;;;;;7.00;5.15;;;;;;;;;;5055552;28;20509;-81
2022/10/06 08:27:37;;;;;;;8.48;5.25;;;;;;;;;;5057131;28;20073;-81
2022/10/06 08:30:04;;;;;;;9.98;5.57;;;;;;;;;;5057608;28;20028;-81
2022/10/06 08:32:31;;;;;;;9.70;6.32;;;;;;;;;;5057180;28;20491;-81
2022/10/06 08:34:57;;;;;;;8.10;5.30;;;;;;;;;;5045536;28;20033;-81
2022/10/06 08:37:25;;;;;;;9.80;5.28;;;;;;;;;;5055735;28;20063;-81
2022/10/06 08:39:52;;;;;;;9.27;5.13;;;;;;;;;;5056773;28;20028;-80
2022/10/06 08:42:36;;;;;;;7.78;5.40;;;;;;;;;;5056533;28;20029;-80
2022/10/06 08:45:04;;;;;;;7.72;4.85;;;;;;;;;;5053825;28;20037;-81
2022/10/06 08:47:34;;;;;;;7.63;4.85;;;;;;;;;;5055966;28;20041;-81
2022/10/06 08:50:00;;;;;;;7.47;5.43;;;;;;;;;;5048799;28;20034;-81
2022/10/06 08:52:26;;;;;;;8.00;4.82;;;;;;;;;;5049245;28;20375;-81
2022/10/06 08:55:11;;;;;;;8.73;4.90;;;;;;;;;;5055249;28;20045;-80
2022/10/06 08:57:57;;;;;;;7.25;4.90;;;;;;;;;;5038257;28;20032;-81
2022/10/06 09:00:23;;;;;;;6.85;3.90;;;;;;;;;;5057414;28;20422;-81
2022/10/06 09:02:50;;;;;;;6.85;4.57;;;;;;;;;;5056055;28;20088;-81
2022/10/06 09:05:24;;;;;;;7.32;4.32;;;;;;;;;;5054990;28;20390;-79
2022/10/06 09:08:09;;;;;;;7.85;4.03;;;;;;;;;;5055996;28;20048;-80
2022/10/06 09:10:42;;;;;;;6.57;3.55;;;;;;;;;;5056089;28;20036;-80
2022/10/06 09:13:27;;;;;;;6.28;3.63;;;;;;;;;;5056443;28;20443;-84
2022/10/06 09:15:55;;;;;;;6.72;3.97;;;;;;;;;;5049641;28;20052;-81
2022/10/06 09:18:21;;;;;;;5.47;3.55;;;;;;;;;;5055343;28;20025;-80
2022/10/06 09:20:53;;;;;;;6.65;3.53;;;;;;;;;;5055229;28;20036;-80
2022/10/06 09:23:46;;;;;;;;;;;;;;;;;;5055774;28;20025;-81
2022/10/06 09:26:09;;;;;;;5.57;2.75;;;;;;;;;;5058744;28;19954;-81
2022/10/06 09:28:36;;;;;;;5.43;2.72;;;;;;;;;;5056923;28;20033;-82
2022/10/06 09:31:02;;;;;;;7.20;3.60;;;;;;;;;;5056078;28;20031;-81
2022/10/06 09:33:32;;;;;;;4.65;2.67;;;;;;;;;;5053468;28;20091;-82
2022/10/06 09:36:09;;;;;;;6.13;3.03;;;;;;;;;;5040108;28;20029;-79
2022/10/06 09:38:55;;;;;;;6.28;3.17;;;;;;;;;;5054791;28;20025;-81
2022/10/06 09:41:42;;;;;;;5.25;2.80;;;;;;;;;;5055926;28;20021;-81
2022/10/06 09:44:23;;;;;;;6.55;3.08;;;;;;;;;;5056311;28;20040;-81
2022/10/06 09:46:51;;;;;;;6.45;2.90;;;;;;;;;;5057708;28;20028;-81
2022/10/06 09:49:18;;;;;;;6.93;3.80;;;;;;;;;;5058465;28;20041;-82
2022/10/06 09:52:11;;;;;;;4.28;2.47;;;;;;;;;;5057727;28;20383;-81
2022/10/06 09:54:40;;;;;;;5.35;3.13;;;;;;;;;;5053172;28;20021;-80
2022/10/06 09:57:18;;;;;;;7.85;3.00;;;;;;;;;;5049694;28;20029;-80
2022/10/06 09:59:45;;;;;;;4.57;2.60;;;;;;;;;;5045009;28;20021;-81
2022/10/06 10:02:30;;;;;;;4.97;2.80;;;;;;;;;;5043851;28;20037;-81
2022/10/06 10:04:57;;;;;;;4.38;2.50;;;;;;;;;;5063029;28;20033;-82
2022/10/06 10:07:27;;;;;;;6.30;2.58;;;;;;;;;;5048165;28;20071;-83
2022/10/06 10:09:54;;;;;;;4.28;2.75;;;;;;;;;;5055349;28;20521;-83
2022/10/06 10:12:29;;;;;;;6.47;2.60;;;;;;;;;;5049503;28;20025;-81
2022/10/06 10:14:58;;;;;;;5.32;2.45;;;;;;;;;;5054449;28;20111;-82
2022/10/06 10:17:47;;;;;;;5.70;2.50;;;;;;;;;;5049551;28;20025;-81
2022/10/06 10:20:33;;;;;;;4.60;2.35;;;;;;;;;;5038718;28;20047;-82
2022/10/06 10:23:01;;;;;;;4.40;2.55;;;;;;;;;;5061519;28;20032;-82
2022/10/06 10:25:33;;;;;;;6.50;3.00;;;;;;;;;;5060252;28;20040;-82
2022/10/06 10:28:02;;;;;;;5.97;2.40;;;;;;;;;;5047827;28;20029;-82
2022/10/06 10:30:31;;;;;;;6.68;2.60;;;;;;;;;;5048039;28;20040;-82
2022/10/06 10:33:01;;;;;;;4.43;2.35;;;;;;;;;;5062785;28;20028;-81
2022/10/06 10:35:37;;;;;;;7.10;2.45;;;;;;;;;;5062572;28;20029;-81
2022/10/06 10:38:07;;;;;;;5.75;2.70;;;;;;;;;;5049900;28;20025;-81
2022/10/06 10:40:36;;;;;;;4.85;2.42;;;;;;;;;;5065306;28;20055;-81
2022/10/06 10:43:02;;;;;;;4.40;2.38;;;;;;;;;;5057322;28;20047;-81
2022/10/06 10:45:32;;;;;;;4.60;2.53;;;;;;;;;;5060990;28;20036;-79
2022/10/06 10:48:00;;;;;;;4.32;2.40;;;;;;;;;;5066797;28;20106;-83
2022/10/06 10:50:52;;;;;;;6.65;2.63;;;;;;;;;;5067995;28;20028;-81
2022/10/06 10:53:24;;;;;;;4.07;2.20;;;;;;;;;;5043818;28;20041;-80
2022/10/06 10:55:52;;;;;;;4.80;2.40;;;;;;;;;;5030122;28;20034;-81
2022/10/06 10:58:35;;;;;;;5.85;2.60;;;;;;;;;;5057915;28;20036;-81
2022/10/06 11:01:21;;;;;;;7.47;2.38;;;;;;;;;;5041649;28;20028;-80
2022/10/06 11:03:55;;;;;;;3.80;2.10;;;;;;;;;;5044064;28;20033;-82
2022/10/06 11:06:21;;;;;;;4.28;2.22;;;;;;;;;;5056312;28;20025;-80
2022/10/06 11:09:02;;;;;;;4.47;2.30;;;;;;;;;;5056634;28;20324;-82
2022/10/06 11:12:02;;;;;;;5.15;2.58;;;;;;;;;;5058310;28;20032;-80
2022/10/06 11:14:47;;;;;;;4.53;2.25;;;;;;;;;;5020214;28;20037;-80
2022/10/06 11:17:43;;;;;;;5.93;2.60;;;;;;;;;;5052327;28;20021;-81
2022/10/06 11:20:09;;;;;;;7.15;2.60;;;;;;;;;;5056229;28;20071;-82
2022/10/06 11:22:43;;;;;;;5.88;2.15;;;;;;;;;;5057049;28;20028;-82
2022/10/06 11:25:21;;;;;;;4.32;2.50;;;;;;;;;;5061072;28;20035;-80
2022/10/06 11:27:51;;;;;;;8.27;2.65;;;;;;;;;;5060818;28;20040;-82
2022/10/06 11:30:18;;;;;;;5.40;3.17;;;;;;;;;;5061304;28;20112;-81
2022/10/06 11:32:50;;;;;;;5.65;2.40;;;;;;;;;;5059771;28;20088;-83
2022/10/06 11:35:25;;;;;;;4.80;2.30;;;;;;;;;;5053564;28;20021;-81
2022/10/06 11:37:59;;;;;;;5.35;2.70;;;;;;;;;;5056851;28;20170;-81
2022/10/06 11:40:31;;;;;;;5.10;2.20;;;;;;;;;;5058417;28;20050;-82
2022/10/06 11:42:57;;;;;;;6.25;3.20;;;;;;;;;;5058983;28;20044;-82
2022/10/06 11:45:26;;;;;;;5.75;2.92;;;;;;;;;;5059571;28;20032;-82
2022/10/06 11:48:09;;;;;;;6.45;2.55;;;;;;;;;;5057805;28;20045;-81
2022/10/06 11:50:36;;;;;;;6.25;2.65;;;;;;;;;;5059087;28;20117;-82
2022/10/06 11:53:03;;;;;;;4.18;2.53;;;;;;;;;;5058863;28;20032;-82
2022/10/06 11:55:29;;;;;;;5.65;2.40;;;;;;;;;;5058872;28;20024;-82
2022/10/06 11:58:04;;;;;;;4.60;2.33;;;;;;;;;;5058054;28;20028;-81
2022/10/06 12:00:34;;;;;;;5.00;2.45;;;;;;;;;;5058446;28;20021;-80
2022/10/06 12:03:18;;;;;;;5.93;2.80;;;;;;;;;;5059883;28;20021;-84
2022/10/06 12:05:44;;;;;;;5.32;2.50;;;;;;;;;;5039462;28;20029;-81
2022/10/06 12:08:15;;;;;;;6.53;3.03;;;;;;;;;;5047186;28;20210;-83
2022/10/06 12:10:48;;;;;;;4.65;2.60;;;;;;;;;;5059003;28;20029;-81
2022/10/06 12:13:26;;;;;;;6.13;2.60;;;;;;;;;;5058609;28;20021;-83
2022/10/06 12:16:01;;;;;;;5.45;2.58;;;;;;;;;;5057765;28;20029;-82
2022/10/06 12:18:33;;;;;;;6.55;3.00;;;;;;;;;;5057772;28;20550;-84
2022/10/06 12:21:05;;;;;;;;;;;;;;;;;;5057463;28;20060;-81
2022/10/06 12:23:33;;;;;;;5.43;2.83;;;;;;;;;;5057111;28;20448;-81
2022/10/06 12:26:04;;;;;;;6.68;3.00;;;;;;;;;;5056690;28;20044;-81
2022/10/06 12:28:46;;;;;;;5.35;2.80;;;;;;;;;;5055939;28;20434;-79
2022/10/06 12:31:12;;;;;;;;;;;;;;;;;;5055915;28;20031;-79
2022/10/06 12:33:39;;;;;;;6.22;2.53;;;;;;;;;;5055991;28;20430;-80
2022/10/06 12:36:15;;;;;;;5.32;2.80;;;;;;;;;;5038529;28;20059;-80
2022/10/06 12:38:42;;;;;;;7.10;2.67;;;;;;;;;;5055529;28;20032;-81
2022/10/06 12:41:12;;;;;;;7.60;3.72;;;;;;;;;;5055846;28;20036;-80
2022/10/06 12:43:49;;;;;;;5.82;2.60;;;;;;;;;;5056681;28;20021;-80
2022/10/06 12:46:35;;;;;;;4.65;2.45;;;;;;;;;;5056157;28;20085;-81
2022/10/06 12:49:01;;;;;;;5.70;2.55;;;;;;;;;;5036450;28;20041;-84
2022/10/06 12:51:37;;;;;;;6.20;2.85;;;;;;;;;;5058971;28;20028;-82
2022/10/06 12:54:22;;;;;;;4.72;2.25;;;;;;;;;;5055407;28;20031;-82
2022/10/06 12:56:58;;;;;;;4.63;2.35;;;;;;;;;;5056555;28;20021;-80
2022/10/06 12:59:28;;;;;;;4.88;2.45;;;;;;;;;;5053249;28;20026;-81
2022/10/06 13:01:56;;;;;;;5.10;2.97;;;;;;;;;;5056231;28;20083;-81
2022/10/06 13:04:48;;;;;;;4.63;2.20;;;;;;;;;;5038591;28;20043;-81
2022/10/06 13:07:15;;;;;;;4.80;2.28;;;;;;;;;;4969631;28;20077;-81
2022/10/06 13:09:42;;;;;;;5.63;2.40;;;;;;;;;;4973309;28;20400;-81
2022/10/06 13:12:22;;;;;;;5.32;2.25;;;;;;;;;;4972854;28;20058;-81
2022/10/06 13:15:07;;;;;;;5.55;2.22;;;;;;;;;;4971971;28;20030;-81
2022/10/06 13:17:34;;;;;;;4.57;2.38;;;;;;;;;;4975494;28;20030;-82
2022/10/06 13:20:00;;;;;;;6.55;2.55;;;;;;;;;;4975085;28;20027;-81
2022/10/06 13:22:27;;;;;;;4.43;2.38;;;;;;;;;;4974728;28;20057;-81
2022/10/06 13:24:59;;;;;;;5.07;2.40;;;;;;;;;;4973819;28;20135;-82
2022/10/06 13:27:25;;;;;;;4.60;2.40;;;;;;;;;;4974536;28;20198;-81
2022/10/06 13:30:10;;;;;;;5.15;2.40;;;;;;;;;;4975626;28;20038;-82
2022/10/06 13:32:36;;;;;;;4.53;2.40;;;;;;;;;;4973039;28;20031;-82
2022/10/06 13:35:02;;;;;;;6.00;2.70;;;;;;;;;;4970842;28;20110;-84
2022/10/06 13:37:28;;;;;;;5.63;2.22;;;;;;;;;;4975665;28;20490;-83
2022/10/06 13:39:54;;;;;;;6.13;2.50;;;;;;;;;;4974328;28;20041;-82
2022/10/06 13:42:22;;;;;;;5.38;2.10;;;;;;;;;;4982364;28;20077;-84
2022/10/06 13:44:59;;;;;;;5.10;2.05;;;;;;;;;;5034440;28;20064;-83
2022/10/06 13:47:28;;;;;;;5.03;1.92;;;;;;;;;;5053140;28;20065;-82
2022/10/06 13:49:54;;;;;;;5.45;1.98;;;;;;;;;;5056970;28;20033;-82
2022/10/06 13:52:29;;;;;;;4.93;1.95;;;;;;;;;;5040010;28;20021;-81
2022/10/06 13:54:59;;;;;;;7.03;2.47;;;;;;;;;;5056613;28;20048;-82
2022/10/06 13:57:54;;;;;;;6.10;2.03;;;;;;;;;;5055007;28;20068;-81
2022/10/06 14:00:21;;;;;;;4.82;1.80;;;;;;;;;;5037410;28;20037;-82
2022/10/06 14:02:49;;;;;;;6.60;2.92;;;;;;;;;;5060194;28;20028;-82
2022/10/06 14:05:18;;;;;;;5.93;2.10;;;;;;;;;;5058170;28;20391;-82
2022/10/06 14:07:44;;;;;;;4.28;1.95;;;;;;;;;;5044374;28;20557;-81
2022/10/06 14:10:27;;;;;;;5.50;2.30;;;;;;;;;;5060489;28;20037;-80
2022/10/06 14:12:54;;;;;;;5.28;1.90;;;;;;;;;;5056010;28;20395;-80
2022/10/06 14:15:25;;;;;;;4.68;2.00;;;;;;;;;;5058103;28;20033;-81
2022/10/06 14:17:52;;;;;;;4.47;1.80;;;;;;;;;;5059163;28;20017;-80
2022/10/06 14:20:39;;;;;;;5.47;2.00;;;;;;;;;;5035521;28;20029;-82
2022/10/06 14:23:23;;;;;;;5.03;1.90;;;;;;;;;;5053196;28;20036;-81
2022/10/06 14:25:49;;;;;;;5.22;1.90;;;;;;;;;;5058243;28;20126;-80
2022/10/06 14:28:15;;;;;;;3.92;1.65;;;;;;;;;;5061977;28;20029;-81
2022/10/06 14:30:41;;;;;;;4.57;1.92;;;;;;;;;;5059705;28;20041;-81
2022/10/06 14:33:08;;;;;;;4.43;2.08;;;;;;;;;;5068856;28;20605;-82
2022/10/06 14:35:34;;;;;;;6.82;2.00;;;;;;;;;;5064072;28;20025;-82
2022/10/06 14:38:00;;;;;;;5.88;2.03;;;;;;;;;;5063707;28;20092;-82
2022/10/06 14:40:26;;;;;;;5.43;1.80;;;;;;;;;;5063671;28;20397;-83
2022/10/06 14:42:52;;;;;;;6.93;2.15;;;;;;;;;;5061921;28;20426;-82
2022/10/06 14:45:18;;;;;;;4.93;2.10;;;;;;;;;;5058854;28;20075;-82
2022/10/06 14:47:45;;;;;;;4.63;1.90;;;;;;;;;;5061533;28;20044;-83
2022/10/06 14:50:11;;;;;;;4.85;2.30;;;;;;;;;;5062134;28;20040;-82
2022/10/06 14:52:38;;;;;;;5.97;2.55;;;;;;;;;;5060843;28;20020;-82
2022/10/06 14:55:06;;;;;;;4.75;1.92;;;;;;;;;;5042836;28;20518;-81
2022/10/06 14:57:34;;;;;;;4.78;2.20;;;;;;;;;;5060379;28;20021;-82
2022/10/06 15:00:00;;;;;;;5.22;2.00;;;;;;;;;;5062289;28;20025;-81
2022/10/06 15:02:26;;;;;;;5.15;2.05;;;;;;;;;;5053194;28;20049;-81
2022/10/06 15:04:52;;;;;;;5.72;1.90;;;;;;;;;;5030526;28;20033;-81
2022/10/06 15:10:04;;;;;;;6.32;2.28;;;;;;;;;;5056826;28;20076;-81